Time;durP1;ratioP1;P1;durP2;ratioP2;P2;SDS_P1;SDS_P2;PMS_P1;PMS_P2;Temp;Humidity;BMP_temperature;BMP_pressure;BME280_temperature;BME280_humidity;BME280_pressure;Samples;Min_cycle;Max_cycle;Signal;HPM_P1;HPM_P2
2022/05/15 00:00:41;;;;;;;7.10;1.70;;;;;;;-145.69;97.11;71957.59;5076081;28;20205;-74
2022/05/15 00:03:12;;;;;;;5.78;1.50;;;;;;;-145.69;94.28;71935.72;5074877;28;20454;-74
2022/05/15 00:05:43;;;;;;;5.20;1.50;;;;;;;-145.69;97.59;71939.69;5075627;28;20222;-74
2022/05/15 00:08:14;;;;;;;3.87;1.20;;;;;;;-145.69;97.61;71947.66;5075671;28;20255;-74
2022/05/15 00:10:43;;;;;;;5.63;1.40;;;;;;;-145.69;96.62;71969.53;5075582;28;20203;-75
2022/05/15 00:13:09;;;;;;;4.87;1.30;;;;;;;-145.69;97.44;71987.47;5075950;28;20226;-74
2022/05/15 00:15:36;;;;;;;5.47;1.33;;;;;;;-145.69;94.61;71979.50;5075667;28;20638;-74
2022/05/15 00:18:06;;;;;;;2.00;1.20;;;;;;;-145.69;94.43;71983.47;5075608;28;20672;-74
2022/05/15 00:20:36;;;;;;;3.63;1.20;;;;;;;-145.69;91.26;71969.53;5075387;28;20293;-74
2022/05/15 00:23:08;;;;;;;1.43;1.00;;;;;;;-145.69;88.94;71959.59;5075105;28;20257;-75
2022/05/15 00:25:35;;;;;;;3.50;0.97;;;;;;;-145.69;87.39;71955.63;5063735;28;20286;-74
2022/05/15 00:28:01;;;;;;;2.77;1.33;;;;;;;-145.69;84.98;71951.63;5055118;28;20542;-74
2022/05/15 00:30:31;;;;;;;8.67;1.73;;;;;;;-145.69;82.54;71927.75;5055486;28;20555;-74
2022/05/15 00:32:58;;;;;;;8.13;1.43;;;;;;;-145.69;84.16;71911.84;5055331;28;20239;-74
2022/05/15 00:35:25;;;;;;;2.10;1.17;;;;;;;-145.69;83.65;71915.81;5061402;28;20252;-74
2022/05/15 00:37:54;;;;;;;3.47;1.20;;;;;;;-145.69;85.31;71915.81;5074369;28;20442;-74
2022/05/15 00:40:28;;;;;;;3.97;1.40;;;;;;;-145.69;87.20;71931.72;5074813;28;20665;-74
2022/05/15 00:42:55;;;;;;;4.60;1.13;;;;;;;-145.69;88.29;71929.75;5075118;28;20711;-74
2022/05/15 00:45:25;;;;;;;3.97;1.00;;;;;;;-145.69;86.68;71909.84;5075143;28;20203;-74
2022/05/15 00:47:52;;;;;;;2.93;1.10;;;;;;;-145.69;85.68;71899.88;5075159;28;20278;-75
2022/05/15 00:50:23;;;;;;;3.07;1.20;;;;;;;-145.69;86.24;71889.94;5074800;28;20639;-74
2022/05/15 00:52:53;;;;;;;3.27;0.97;;;;;;;-145.69;89.55;71901.88;5074596;28;20260;-74
2022/05/15 00:55:31;;;;;;;3.13;1.60;;;;;;;-145.69;90.81;71911.84;5075182;28;20211;-74
2022/05/15 00:58:01;;;;;;;2.57;1.20;;;;;;;-145.69;84.21;71876.00;5075093;28;20230;-74
2022/05/15 01:00:30;;;;;;;3.37;1.00;;;;;;;-145.69;82.68;71844.16;5074923;28;20202;-74
2022/05/15 01:03:05;;;;;;;2.40;1.00;;;;;;;-145.69;83.73;71852.13;5074026;28;20280;-74
2022/05/15 01:05:33;;;;;;;5.63;1.20;;;;;;;-145.69;82.55;71844.16;5074915;28;20198;-74
2022/05/15 01:07:59;;;;;;;5.20;1.10;;;;;;;-145.69;84.48;71832.22;5074342;28;20202;-74
2022/05/15 01:10:31;;;;;;;5.27;0.90;;;;;;;-145.69;77.47;71808.34;5074634;28;20202;-74
2022/05/15 01:13:04;;;;;;;3.63;1.10;;;;;;;-145.69;72.10;71762.56;5074910;28;20202;-74
2022/05/15 01:15:32;;;;;;;5.10;1.40;;;;;;;-145.69;73.07;71742.69;5077139;28;20210;-74
2022/05/15 01:17:58;;;;;;;3.37;1.10;;;;;;;-145.69;71.61;71730.72;5094785;28;20560;-74
2022/05/15 01:20:32;;;;;;;5.63;1.30;;;;;;;-145.69;77.21;71740.69;5065082;28;20218;-74
2022/05/15 01:23:00;;;;;;;6.30;1.10;;;;;;;-145.69;73.60;71748.66;5061203;28;20223;-75
2022/05/15 01:25:34;;;;;;;4.13;1.10;;;;;;;-145.69;73.13;71754.63;5074317;28;20558;-75
2022/05/15 01:28:05;;;;;;;2.03;1.00;;;;;;;-145.69;72.12;71748.66;5074423;28;20496;-74
2022/05/15 01:30:32;;;;;;;2.03;1.10;;;;;;;-145.69;75.32;71752.63;5073861;28;20561;-75
2022/05/15 01:33:01;;;;;;;1.93;1.20;;;;;;;-145.69;80.26;71788.44;5074190;28;20203;-75
2022/05/15 01:35:33;;;;;;;2.20;1.00;;;;;;;-145.69;74.95;71760.59;5074170;28;20596;-74
2022/05/15 01:38:04;;;;;;;3.07;1.20;;;;;;;-145.69;67.40;71714.81;5074073;28;20214;-74
2022/05/15 01:40:31;;;;;;;1.10;0.87;;;;;;;-145.69;64.95;71692.94;5074223;28;20202;-74
2022/05/15 01:42:59;;;;;;;8.43;1.10;;;;;;;-145.69;64.94;71690.94;5073398;28;20479;-74
2022/05/15 01:45:25;;;;;;;2.37;0.80;;;;;;;-145.69;63.36;71643.19;5073706;28;20244;-74
2022/05/15 01:47:53;;;;;;;2.20;1.13;;;;;;;-145.69;62.64;71621.28;5073840;28;20213;-74
2022/05/15 01:50:20;;;;;;;1.63;0.97;;;;;;;-145.69;61.26;71613.31;5073707;28;20246;-74
2022/05/15 01:52:47;;;;;;;2.93;1.10;;;;;;;-145.69;62.00;71613.31;5074090;28;20260;-74
2022/05/15 01:55:18;;;;;;;2.67;1.00;;;;;;;-145.69;60.49;71613.31;5073427;28;20596;-74
2022/05/15 01:57:45;;;;;;;4.80;1.87;;;;;;;-145.69;61.71;71607.34;5073758;28;20597;-74
2022/05/15 02:00:14;;;;;;;2.07;0.80;;;;;;;-145.69;62.40;71595.41;5073070;28;20202;-74
2022/05/15 02:02:40;;;;;;;4.93;0.90;;;;;;;-145.69;60.09;71585.47;5073533;28;20258;-74
2022/05/15 02:05:10;;;;;;;2.20;1.57;;;;;;;-145.69;60.21;71557.59;5073407;28;20252;-75
2022/05/15 02:07:36;;;;;;;4.73;1.47;;;;;;;-145.69;60.71;71571.53;5073525;28;20206;-74
2022/05/15 02:10:08;;;;;;;4.17;1.13;;;;;;;-145.69;63.56;71587.47;5073186;28;20205;-74
2022/05/15 02:12:39;;;;;;;4.83;1.23;;;;;;;-145.69;62.72;71541.69;5073474;28;20289;-74
2022/05/15 02:15:10;;;;;;;2.47;1.20;;;;;;;-145.69;63.10;71531.75;5072595;28;20199;-74
2022/05/15 02:17:36;;;;;;;3.17;1.20;;;;;;;-145.69;63.98;71557.59;5060794;28;20207;-76
2022/05/15 02:20:04;;;;;;;5.80;1.50;;;;;;;-145.69;66.85;71583.47;5053206;28;20641;-74
2022/05/15 02:22:31;;;;;;;6.07;1.57;;;;;;;-145.69;66.85;71581.50;5053396;28;20569;-74
2022/05/15 02:25:00;;;;;;;2.63;1.10;;;;;;;-145.69;66.95;71563.56;5055310;28;20657;-73
2022/05/15 02:27:28;;;;;;;2.90;1.27;;;;;;;-145.69;67.83;71561.59;5072682;28;20198;-74
2022/05/15 02:30:08;;;;;;;5.63;1.30;;;;;;;-145.69;65.88;71553.63;5072864;28;20301;-74
2022/05/15 02:32:34;;;;;;;2.73;1.17;;;;;;;-145.69;67.39;71557.59;5073139;28;20198;-74
2022/05/15 02:35:02;;;;;;;5.27;1.30;;;;;;;-145.69;67.65;71551.63;5073151;28;20203;-74
2022/05/15 02:37:32;;;;;;;4.93;1.17;;;;;;;-145.69;66.98;71559.59;5073286;28;20222;-74
2022/05/15 02:40:04;;;;;;;1.93;1.10;;;;;;;-145.69;68.44;71575.50;5072682;28;20209;-74
2022/05/15 02:42:33;;;;;;;5.10;1.40;;;;;;;-145.69;69.02;71581.50;5072697;28;20198;-75
2022/05/15 02:45:06;;;;;;;3.50;1.27;;;;;;;-145.69;70.18;71591.44;5073423;28;20256;-74
2022/05/15 02:47:33;;;;;;;9.87;1.50;;;;;;;-145.69;69.96;71589.44;5073127;28;20209;-74
2022/05/15 02:52:47;;;;;;;5.53;1.10;;;;;;;-145.69;70.16;71589.44;5072833;28;20193;-74
2022/05/15 02:55:15;;;;;;;5.83;1.13;;;;;;;-145.69;70.95;71595.41;5073047;28;20252;-74
2022/05/15 02:57:43;;;;;;;4.47;1.30;;;;;;;-145.69;70.76;71593.44;5072542;28;20198;-74
2022/05/15 03:00:13;;;;;;;5.90;1.63;;;;;;;-145.69;72.90;71613.31;5064772;28;20200;-74
2022/05/15 03:02:41;;;;;;;4.17;1.33;;;;;;;-145.69;74.78;71637.19;5052559;28;20200;-74
2022/05/15 03:05:12;;;;;;;5.20;1.37;;;;;;;-145.69;76.23;71653.13;5052561;28;20196;-74
2022/05/15 03:07:40;;;;;;;5.13;1.40;;;;;;;-145.69;74.99;71641.19;5052980;28;20260;-74
2022/05/15 03:10:09;;;;;;;5.73;1.50;;;;;;;-145.69;74.55;71645.16;5052798;28;20290;-74
2022/05/15 03:12:38;;;;;;;5.60;1.20;;;;;;;-145.69;75.43;71649.16;5055159;28;20238;-74
2022/05/15 03:15:11;;;;;;;2.00;1.10;;;;;;;-145.69;77.59;71677.00;5072149;28;20202;-74
2022/05/15 03:17:42;;;;;;;3.80;1.20;;;;;;;-145.69;78.08;71684.97;5072502;28;20206;-74
2022/05/15 03:20:10;;;;;;;8.73;1.43;;;;;;;-145.69;79.63;71696.91;5072321;28;20199;-75
2022/05/15 03:22:38;;;;;;;2.13;1.17;;;;;;;-145.69;77.64;71692.94;5072615;28;20252;-74
2022/05/15 03:25:06;;;;;;;3.03;1.37;;;;;;;-145.69;78.71;71679.00;5072890;28;20225;-74
2022/05/15 03:27:33;;;;;;;2.47;1.20;;;;;;;-145.69;80.85;71686.97;5075983;28;20596;-74
2022/05/15 03:30:06;;;;;;;5.07;1.40;;;;;;;-145.69;81.41;71688.94;5076266;28;20288;-74
2022/05/15 03:32:34;;;;;;;5.30;1.37;;;;;;;-145.69;83.80;71722.78;5076214;28;20553;-75
2022/05/15 03:35:02;;;;;;;3.23;1.60;;;;;;;-145.69;82.75;71726.75;5076652;28;20208;-74
2022/05/15 03:37:31;;;;;;;4.93;1.70;;;;;;;-145.69;85.78;71744.66;5076384;28;20222;-74
2022/05/15 03:40:02;;;;;;;4.97;1.40;;;;;;;-145.69;88.20;71772.53;5076365;28;20225;-74
2022/05/15 03:42:28;;;;;;;5.67;1.40;;;;;;;-145.69;87.53;71802.38;5076300;28;20202;-74
2022/05/15 03:45:02;;;;;;;2.97;1.30;;;;;;;-145.69;87.07;71824.25;5075622;28;20775;-74
2022/05/15 03:47:29;;;;;;;2.93;1.20;;;;;;;-145.69;87.42;71836.22;5075799;28;20203;-74
2022/05/15 03:49:55;;;;;;;4.40;1.67;;;;;;;-145.69;88.08;71864.06;5075983;28;20715;-74
2022/05/15 03:52:33;;;;;;;4.13;1.30;;;;;;;-145.69;89.32;71880.00;5076270;28;20213;-74
2022/05/15 03:55:02;;;;;;;1.97;1.30;;;;;;;-145.69;91.47;71889.94;5075706;28;20195;-75
2022/05/15 03:57:31;;;;;;;4.50;1.57;;;;;;;-145.69;94.60;71899.88;5075900;28;20260;-74
2022/05/15 03:59:59;;;;;;;3.73;1.23;;;;;;;-145.69;94.30;71905.88;5076236;28;20202;-74
2022/05/15 04:02:28;;;;;;;2.43;1.23;;;;;;;-145.69;94.63;71911.84;5075772;28;20195;-75
2022/05/15 04:05:02;;;;;;;2.30;1.30;;;;;;;-145.69;94.87;71923.78;5074309;28;20465;-74
2022/05/15 04:07:31;;;;;;;3.87;1.77;;;;;;;-145.69;94.76;71927.75;5075761;28;20703;-74
2022/05/15 04:09:59;;;;;;;4.50;1.60;;;;;;;-145.69;97.46;71919.78;5075715;28;20205;-74
2022/05/15 04:12:27;;;;;;;4.13;1.57;;;;;;;-145.69;97.36;71929.75;5076041;28;20587;-74
2022/05/15 04:14:56;;;;;;;4.60;1.80;;;;;;;-145.69;97.18;71923.78;5075428;28;20684;-74
2022/05/15 04:17:22;;;;;;;4.03;1.57;;;;;;;-145.69;97.03;71917.81;5075179;28;20549;-74
2022/05/15 04:19:53;;;;;;;2.73;1.37;;;;;;;-145.69;96.91;71909.84;5075661;28;20222;-74
2022/05/15 04:22:21;;;;;;;4.83;1.47;;;;;;;-145.69;97.48;71897.91;5075291;28;20557;-74
2022/05/15 04:24:50;;;;;;;6.13;1.60;;;;;;;-145.69;99.06;71907.84;5075522;28;20727;-74
2022/05/15 04:27:17;;;;;;;2.73;1.67;;;;;;;-145.69;99.65;71907.84;5075068;28;20282;-74
2022/05/15 04:29:45;;;;;;;4.10;1.40;;;;;;;-145.69;100.00;71901.88;5075251;28;20782;-74
2022/05/15 04:32:11;;;;;;;3.00;1.60;;;;;;;-145.69;99.69;71907.84;5074763;28;20467;-74
2022/05/15 04:34:43;;;;;;;8.03;1.60;;;;;;;-145.69;98.31;71899.88;5075221;28;20214;-75
2022/05/15 04:37:13;;;;;;;3.33;1.70;;;;;;;-145.69;100.00;71887.94;5074699;28;20748;-74
2022/05/15 04:39:42;;;;;;;3.97;1.80;;;;;;;-145.69;100.00;71876.00;5074513;28;20430;-74
2022/05/15 04:42:11;;;;;;;4.83;1.60;;;;;;;-145.69;100.00;71876.00;5075505;28;20202;-74
2022/05/15 04:44:39;;;;;;;5.17;2.00;;;;;;;-145.69;100.00;71885.97;5074983;28;20272;-74
2022/05/15 04:47:09;;;;;;;5.37;1.50;;;;;;;-145.69;100.00;71885.97;5075182;28;20203;-76
2022/05/15 04:49:39;;;;;;;2.30;1.57;;;;;;;-145.69;100.00;71880.00;5074885;28;20344;-75
2022/05/15 04:52:06;;;;;;;8.00;1.90;;;;;;;-145.69;100.00;71868.06;5074327;28;20205;-75
2022/05/15 04:54:34;;;;;;;3.87;1.50;;;;;;;-145.69;100.00;71860.09;5074819;28;20649;-74
2022/05/15 04:57:00;;;;;;;2.10;1.60;;;;;;;-145.69;100.00;71848.16;5075032;28;20229;-74
2022/05/15 04:59:28;;;;;;;2.73;1.30;;;;;;;-145.69;99.78;71828.25;5075056;28;20191;-74
2022/05/15 05:01:54;;;;;;;6.53;1.80;;;;;;;-145.69;98.84;71814.31;5074683;28;20568;-75
2022/05/15 05:04:21;;;;;;;3.23;2.13;;;;;;;-145.69;100.00;71800.38;5074727;28;20230;-74
2022/05/15 05:06:48;;;;;;;4.73;1.50;;;;;;;-145.69;98.68;71788.44;5074279;28;20223;-75
2022/05/15 05:09:21;;;;;;;4.50;1.90;;;;;;;-145.69;98.61;71776.50;5074887;28;20203;-75
2022/05/15 05:11:48;;;;;;;6.90;1.50;;;;;;;-145.69;96.62;71760.59;5074707;28;20653;-74
2022/05/15 05:14:20;;;;;;;5.77;1.87;;;;;;;-145.69;97.73;71732.72;5074487;28;20642;-75
2022/05/15 05:16:51;;;;;;;3.60;1.33;;;;;;;-145.69;96.36;71724.75;5074722;28;20206;-75
2022/05/15 05:19:17;;;;;;;2.97;1.40;;;;;;;-145.69;98.65;71718.78;5074431;28;20562;-74
2022/05/15 05:21:46;;;;;;;3.57;1.90;;;;;;;-145.69;97.54;71698.91;5074284;28;20190;-75
2022/05/15 05:24:12;;;;;;;4.47;1.70;;;;;;;-145.69;97.50;71684.97;5074371;28;20301;-74
2022/05/15 05:26:39;;;;;;;3.97;1.60;;;;;;;-145.69;91.74;71661.09;5073743;28;20199;-74
2022/05/15 05:29:06;;;;;;;3.03;1.40;;;;;;;-145.69;91.27;71643.19;5074237;28;20225;-75
2022/05/15 05:31:33;;;;;;;4.87;1.60;;;;;;;-145.69;90.81;71631.25;5074484;28;20210;-75
2022/05/15 05:34:00;;;;;;;9.23;1.93;;;;;;;-145.69;91.35;71599.41;5074215;28;20199;-75
2022/05/15 05:36:27;;;;;;;4.82;1.50;;;;;;;-145.69;88.93;71537.72;5073835;28;20198;-75
2022/05/15 05:38:53;;;;;;;3.25;1.50;;;;;;;-145.69;82.55;71414.34;5073978;28;20287;-75
2022/05/15 05:41:20;;;;;;;3.58;1.52;;;;;;;-145.69;82.93;71338.72;5073728;28;20202;-75
2022/05/15 05:43:46;;;;;;;4.88;1.30;;;;;;;-145.69;73.42;71231.28;5074219;28;20226;-74
2022/05/15 05:46:13;;;;;;;3.22;1.30;;;;;;;-145.69;72.72;71171.56;5074116;28;20202;-75
2022/05/15 05:48:45;;;;;;;5.18;1.33;;;;;;;-145.69;69.27;71084.03;5073639;28;20205;-75
2022/05/15 05:51:13;;;;;;;5.45;1.83;;;;;;;-145.69;68.11;71074.09;5074116;28;20239;-75
2022/05/15 05:53:40;;;;;;;5.00;1.60;;;;;;;-145.69;64.60;71078.06;5073703;28;20256;-75
2022/05/15 05:56:06;;;;;;;2.08;1.50;;;;;;;-145.69;63.17;71024.34;5073316;28;20286;-75
2022/05/15 05:58:33;;;;;;;2.50;1.30;;;;;;;-145.69;65.46;71002.44;5073798;28;20202;-75
2022/05/15 06:01:00;;;;;;;2.75;1.27;;;;;;;-145.69;63.78;70990.50;5073987;28;20202;-76
2022/05/15 06:06:10;;;;;;;3.90;1.30;;;;;;;-145.69;60.96;70899.00;5073726;28;20256;-75
2022/05/15 06:08:38;;;;;;;2.88;1.00;;;;;;;-145.69;62.31;70948.72;5073487;28;20672;-75
2022/05/15 06:11:04;;;;;;;4.45;1.30;;;;;;;-145.69;64.14;71012.41;5073612;28;20199;-76
2022/05/15 06:13:31;;;;;;;5.45;1.25;;;;;;;-145.69;66.98;71022.34;5073272;28;20195;-75
2022/05/15 06:15:57;;;;;;;3.73;1.50;;;;;;;-145.69;65.41;70996.47;5052355;28;20917;-75
2022/05/15 06:18:24;;;;;;;2.95;1.30;;;;;;;-145.69;65.51;70974.59;5053367;28;20797;-75
2022/05/15 06:20:51;;;;;;;3.33;1.25;;;;;;;-145.69;64.45;70966.63;5053259;28;20196;-75
2022/05/15 06:23:17;;;;;;;2.65;1.20;;;;;;;-145.69;65.04;70910.94;5053002;28;20436;-75
2022/05/15 06:25:45;;;;;;;4.53;1.33;;;;;;;-145.69;63.48;70932.81;5052892;28;20219;-75
2022/05/15 06:28:12;;;;;;;4.78;1.48;;;;;;;-145.69;60.51;70895.00;5062471;28;20348;-75
2022/05/15 06:30:38;;;;;;;7.03;1.73;;;;;;;-145.69;60.21;70881.09;5073237;28;20202;-75
2022/05/15 06:33:06;;;;;;;2.42;1.38;;;;;;;-145.69;59.06;70825.38;5073166;28;20285;-75
2022/05/15 06:35:32;;;;;;;11.05;1.65;;;;;;;-145.69;56.39;70753.75;5072498;28;20210;-75
2022/05/15 06:38:00;;;;;;;2.28;1.15;;;;;;;-145.69;55.02;70757.72;5073161;28;20206;-75
2022/05/15 06:40:27;;;;;;;4.65;1.50;;;;;;;-145.69;53.99;70785.59;5073013;28;20248;-75
2022/05/15 06:42:57;;;;;;;2.75;1.20;;;;;;;-145.69;56.81;70769.66;5073095;28;20202;-75
2022/05/15 06:45:24;;;;;;;9.50;1.50;;;;;;;-145.69;56.72;70775.63;5072723;28;20635;-75
2022/05/15 06:47:51;;;;;;;4.32;1.48;;;;;;;-145.69;53.60;70745.78;5072912;28;20194;-75
2022/05/15 06:50:18;;;;;;;4.82;2.00;;;;;;;-145.69;55.21;70793.53;5072604;28;20226;-75
2022/05/15 06:52:44;;;;;;;3.28;1.60;;;;;;;-145.69;57.31;70773.66;5072643;28;20685;-75
2022/05/15 06:55:15;;;;;;;5.88;1.80;;;;;;;-145.69;55.10;70781.59;5073172;28;20198;-75
2022/05/15 06:57:42;;;;;;;4.80;2.03;;;;;;;-145.69;58.05;70787.56;5072802;28;20210;-75
2022/05/15 07:00:14;;;;;;;4.43;1.55;;;;;;;-145.69;57.13;70775.63;5071991;28;20229;-75
2022/05/15 07:02:41;;;;;;;4.63;1.63;;;;;;;-145.69;55.52;70757.72;5072727;28;20252;-75
2022/05/15 07:05:09;;;;;;;5.10;1.70;;;;;;;-145.69;57.84;70783.59;5072554;28;20585;-75
2022/05/15 07:07:37;;;;;;;2.88;1.33;;;;;;;-145.69;57.79;70749.78;5072918;28;20214;-74
2022/05/15 07:10:04;;;;;;;4.60;1.73;;;;;;;-145.69;57.04;70757.72;5072323;28;20653;-74
2022/05/15 07:12:31;;;;;;;5.45;2.15;;;;;;;-145.69;57.50;70753.75;5072693;28;20202;-74
2022/05/15 07:14:58;;;;;;;4.03;1.75;;;;;;;-145.69;54.86;70735.84;5072572;28;20199;-74
2022/05/15 07:17:25;;;;;;;5.93;2.20;;;;;;;-145.69;54.43;70729.88;5072349;28;20190;-75
2022/05/15 07:19:52;;;;;;;4.70;1.98;;;;;;;-145.69;55.29;70721.91;5072722;28;20214;-74
2022/05/15 07:22:19;;;;;;;6.28;1.92;;;;;;;-145.69;54.16;70725.91;5072478;28;20202;-74
2022/05/15 07:24:45;;;;;;;5.10;1.90;;;;;;;-145.69;54.01;70711.97;5072593;28;20231;-75
2022/05/15 07:27:12;;;;;;;4.60;2.15;;;;;;;-145.69;56.51;70717.94;5072655;28;20539;-74
2022/05/15 07:29:38;;;;;;;8.02;2.35;;;;;;;-145.69;56.25;70711.97;5072644;28;20256;-75
2022/05/15 07:32:06;;;;;;;5.97;1.70;;;;;;;-145.69;55.73;70698.03;5071528;28;20825;-74
2022/05/15 07:34:35;;;;;;;8.88;2.67;;;;;;;-145.69;56.32;70692.06;5072511;28;20203;-75
2022/05/15 07:37:02;;;;;;;6.45;2.08;;;;;;;-145.69;53.38;70690.09;5072338;28;20653;-74
2022/05/15 07:39:29;;;;;;;9.00;2.40;;;;;;;-145.69;54.13;70686.09;5072551;28;20214;-75
2022/05/15 07:41:55;;;;;;;6.70;1.63;;;;;;;-145.69;56.45;70662.22;5071773;28;20661;-75
2022/05/15 07:44:22;;;;;;;9.50;2.20;;;;;;;-145.69;53.87;70656.25;5072344;28;20593;-75
2022/05/15 07:46:49;;;;;;;5.10;1.80;;;;;;;-145.69;49.36;70636.38;5072135;28;20198;-75
2022/05/15 07:49:16;;;;;;;8.05;1.73;;;;;;;-145.69;55.02;70650.28;5072136;28;20199;-76
2022/05/15 07:51:45;;;;;;;8.20;1.70;;;;;;;-145.69;56.47;70614.47;5072460;28;20198;-75
2022/05/15 07:54:13;;;;;;;4.95;1.55;;;;;;;-145.69;51.80;70602.56;5072390;28;20280;-75
2022/05/15 07:56:39;;;;;;;6.40;1.50;;;;;;;-145.69;52.96;70618.47;5072442;28;20262;-76
2022/05/15 07:59:06;;;;;;;2.95;1.55;;;;;;;-145.69;54.92;70586.63;5072359;28;20210;-75
2022/05/15 08:01:32;;;;;;;2.95;1.58;;;;;;;-145.69;53.60;70582.66;5072047;28;20195;-75
2022/05/15 08:03:58;;;;;;;4.28;1.88;;;;;;;-145.69;50.93;70574.69;5072410;28;20203;-75
2022/05/15 08:09:11;;;;;;;3.22;1.52;;;;;;;-145.69;51.21;70580.66;5072108;28;20301;-75
2022/05/15 08:11:37;;;;;;;3.00;1.80;;;;;;;-145.69;48.64;70594.59;5072265;28;20202;-74
2022/05/15 08:14:08;;;;;;;9.88;2.00;;;;;;;-145.69;49.96;70574.69;5075002;28;20199;-75
2022/05/15 08:16:36;;;;;;;3.95;1.65;;;;;;;-145.69;51.09;70562.75;5075724;28;20238;-75
2022/05/15 08:24:32;;;;;;;2.72;1.70;;;;;;;-145.69;48.67;70536.91;5075645;28;20330;-75
2022/05/15 08:26:58;;;;;;;3.92;1.40;;;;;;;-145.69;54.11;70534.91;5075562;28;20203;-75
2022/05/15 08:29:25;;;;;;;3.25;1.55;;;;;;;-145.69;51.18;70515.00;5075364;28;20209;-75
2022/05/15 08:31:52;;;;;;;5.70;1.55;;;;;;;-145.69;49.93;70528.94;5074923;28;20272;-75
2022/05/15 08:34:18;;;;;;;6.07;1.80;;;;;;;-145.69;49.24;70548.84;5075272;28;20210;-75
2022/05/15 08:36:45;;;;;;;5.05;1.88;;;;;;;-145.69;48.39;70566.75;5074992;28;20199;-75
2022/05/15 08:39:12;;;;;;;4.97;1.52;;;;;;;-145.69;47.20;70542.88;5075495;28;20199;-75
2022/05/15 08:41:47;;;;;;;2.53;1.40;;;;;;;-145.69;49.91;70566.75;5062172;28;20257;-75
2022/05/15 08:44:18;;;;;;;3.33;1.52;;;;;;;-145.69;54.86;70528.94;5055261;28;20205;-75
2022/05/15 08:47:01;;;;;;;4.20;1.92;;;;;;;-145.69;50.04;70526.94;5065477;28;20248;-75
2022/05/15 08:49:40;;;;;;;4.00;1.50;;;;;;;-145.69;52.66;70493.13;5075238;28;20202;-75
2022/05/15 08:52:11;;;;;;;5.15;1.60;;;;;;;-145.69;51.33;70489.16;5074926;28;20558;-75
2022/05/15 08:54:42;;;;;;;5.70;1.40;;;;;;;-145.69;50.21;70507.06;5075104;28;20199;-75
2022/05/15 08:57:15;;;;;;;2.10;1.23;;;;;;;-145.69;51.37;70499.09;5075003;28;20195;-76
2022/05/15 08:59:51;;;;;;;5.07;1.65;;;;;;;-145.69;49.71;70483.19;5074938;28;20202;-75
2022/05/15 09:02:17;;;;;;;3.92;1.83;;;;;;;-145.69;51.81;70485.16;5073634;28;20560;-75
2022/05/15 09:04:44;;;;;;;4.43;1.73;;;;;;;-145.69;53.02;70459.31;5074870;28;20261;-75
2022/05/15 09:07:21;;;;;;;3.30;1.40;;;;;;;-145.69;51.31;70487.16;5074855;28;20661;-75
2022/05/15 09:09:57;;;;;;;9.95;1.60;;;;;;;-145.69;50.11;70503.06;5074471;28;20210;-75
2022/05/15 09:12:25;;;;;;;4.55;1.92;;;;;;;-145.69;52.41;70475.22;5074713;28;20194;-75
2022/05/15 09:15:01;;;;;;;7.70;2.20;;;;;;;-145.69;51.58;70467.28;5074884;28;20199;-76
2022/05/15 09:17:33;;;;;;;4.50;1.63;;;;;;;-145.69;51.73;70435.44;5073157;28;20470;-75
2022/05/15 09:20:03;;;;;;;5.60;1.65;;;;;;;-145.69;49.13;70439.41;5074699;28;20238;-75
2022/05/15 09:22:34;;;;;;;4.00;1.67;;;;;;;-145.69;49.22;70449.38;5074435;28;20653;-75
2022/05/15 09:25:06;;;;;;;7.30;1.42;;;;;;;-145.69;49.61;70459.31;5074007;28;20313;-75
2022/05/15 09:27:34;;;;;;;4.13;1.20;;;;;;;-145.69;48.52;70467.28;5074578;28;20632;-75
2022/05/15 09:30:07;;;;;;;5.65;1.65;;;;;;;-145.69;50.00;70475.22;5074361;28;20650;-75
2022/05/15 09:32:38;;;;;;;3.92;1.95;;;;;;;-145.69;49.28;70487.16;5073911;28;20195;-76
2022/05/15 09:35:10;;;;;;;4.32;1.52;;;;;;;-145.69;47.55;70489.16;5074396;28;20205;-76
2022/05/15 09:40:23;;;;;;;6.85;1.63;;;;;;;-145.69;46.43;70455.34;5033370;28;20202;-76
2022/05/15 09:45:53;;;;;;;2.63;1.30;;;;;;;-145.69;50.96;70455.34;5073975;28;20225;-76
2022/05/15 09:48:23;;;;;;;6.65;1.65;;;;;;;-145.69;51.43;70467.28;5073788;28;20656;-76
2022/05/15 09:50:58;;;;;;;4.35;1.27;;;;;;;-145.69;48.15;70459.31;5073707;28;20746;-75
2022/05/15 09:53:38;;;;;;;5.85;1.52;;;;;;;-145.69;45.93;70443.41;5073748;28;20692;-76
2022/05/15 09:56:07;;;;;;;5.18;1.52;;;;;;;-145.69;49.67;70421.50;5074078;28;20198;-76
2022/05/15 09:58:45;;;;;;;4.88;1.45;;;;;;;-145.69;43.58;70411.56;5073896;28;20203;-75
2022/05/15 10:01:16;;;;;;;8.23;1.60;;;;;;;-145.69;44.04;70419.53;5073449;28;20281;-76
2022/05/15 10:03:49;;;;;;;2.45;1.30;;;;;;;-145.69;44.81;70405.59;5073598;28;20206;-75
2022/05/15 10:06:20;;;;;;;3.13;1.70;;;;;;;-145.69;46.66;70387.69;5070482;28;20290;-76
2022/05/15 10:09:05;;;;;;;3.97;1.88;;;;;;;-145.69;47.71;70387.69;5073429;28;20198;-75
2022/05/15 10:11:33;;;;;;;2.55;1.38;;;;;;;-145.69;46.46;70395.66;5073747;28;20210;-75
2022/05/15 10:14:03;;;;;;;10.45;1.45;;;;;;;-145.69;43.61;70383.72;5072975;28;20657;-76
2022/05/15 10:16:32;;;;;;;3.35;1.20;;;;;;;-145.69;46.25;70407.59;5072837;28;20198;-76
2022/05/15 10:19:05;;;;;;;6.50;1.75;;;;;;;-145.69;43.31;70403.59;5073504;28;20202;-75
2022/05/15 10:21:38;;;;;;;2.85;1.40;;;;;;;-145.69;41.59;70419.53;5073618;28;20203;-75
2022/05/15 10:24:09;;;;;;;6.53;1.40;;;;;;;-145.69;41.70;70423.50;5072687;28;20720;-75
2022/05/15 10:26:45;;;;;;;7.70;1.27;;;;;;;-145.69;44.78;70421.50;5073243;28;20234;-76
2022/05/15 10:29:20;;;;;;;3.75;1.67;;;;;;;-145.69;43.69;70415.53;5073390;28;20608;-75
2022/05/15 10:31:51;;;;;;;2.88;1.35;;;;;;;-145.69;42.76;70405.59;5072630;28;20190;-76
2022/05/15 10:34:23;;;;;;;2.85;1.38;;;;;;;-145.69;40.52;70395.66;5073257;28;20207;-75
2022/05/15 10:37:04;;;;;;;2.95;1.30;;;;;;;-145.69;48.01;70369.78;5072646;28;20210;-76
2022/05/15 10:39:41;;;;;;;3.70;1.58;;;;;;;-145.69;44.83;70363.81;5073026;28;20206;-76
2022/05/15 10:42:18;;;;;;;3.25;1.20;;;;;;;-145.69;42.92;70339.94;5073179;28;20198;-76
2022/05/15 10:44:58;;;;;;;6.00;1.20;;;;;;;-145.69;40.56;70359.84;5072873;28;20202;-75
2022/05/15 10:47:30;;;;;;;6.32;1.30;;;;;;;-145.69;41.82;70355.88;5072801;28;20201;-76
2022/05/15 10:50:18;;;;;;;2.95;1.27;;;;;;;-145.69;40.78;70351.88;5070180;28;20596;-75
2022/05/15 10:52:58;;;;;;;7.37;1.60;;;;;;;-145.69;38.73;70328.00;5051875;28;20505;-75
2022/05/15 10:58:30;;;;;;;2.08;1.10;;;;;;;-145.69;49.35;70300.16;5014302;28;20200;-76
2022/05/15 11:01:06;;;;;;;2.28;1.10;;;;;;;-145.69;44.20;70276.28;5053000;28;20301;-76
2022/05/15 11:03:59;;;;;;;2.55;1.25;;;;;;;-145.69;42.57;70250.44;5070022;28;20191;-76
2022/05/15 11:06:49;;;;;;;2.78;1.38;;;;;;;-145.69;39.85;70230.53;5072522;28;20393;-75
2022/05/15 11:09:25;;;;;;;5.25;1.20;;;;;;;-145.69;41.01;70222.56;5069075;28;20207;-76
2022/05/15 11:12:06;;;;;;;2.25;1.10;;;;;;;-145.69;39.04;70216.63;5072790;28;20198;-76
2022/05/15 11:14:42;;;;;;;2.58;1.15;;;;;;;-145.69;39.88;70204.69;5072789;28;20202;-75
2022/05/15 11:17:20;;;;;;;6.45;1.17;;;;;;;-145.69;37.18;70218.59;5072363;28;20234;-76
2022/05/15 11:19:47;;;;;;;3.33;1.10;;;;;;;-145.69;34.88;70220.59;5072630;28;20252;-75
2022/05/15 11:22:24;;;;;;;3.10;1.08;;;;;;;-145.69;41.38;70198.72;5072736;28;20199;-76
2022/05/15 11:24:59;;;;;;;3.08;1.08;;;;;;;-145.69;34.42;70232.53;5072365;28;20491;-76
2022/05/15 11:27:32;;;;;;;3.42;1.15;;;;;;;-145.69;41.65;70204.69;5072218;28;20317;-75
2022/05/15 11:30:05;;;;;;;2.33;1.10;;;;;;;-145.69;37.04;70212.63;5072596;28;20290;-76
2022/05/15 11:32:42;;;;;;;7.35;1.20;;;;;;;-145.69;38.88;70216.63;5072514;28;20649;-76
2022/05/15 11:35:22;;;;;;;2.88;1.13;;;;;;;-145.69;38.45;70196.72;5072342;28;20201;-76
2022/05/15 11:38:02;;;;;;;2.20;1.10;;;;;;;-145.69;37.45;70168.88;5072676;28;20202;-76
2022/05/15 11:40:36;;;;;;;2.88;1.20;;;;;;;-145.69;33.90;70164.88;5072448;28;20707;-76
2022/05/15 11:43:57;;;;;;;4.05;1.15;;;;;;;-145.69;34.57;70156.94;5072564;28;20234;-76
2022/05/15 11:47:05;;;;;;;0.95;0.80;;;;;;;-145.69;36.53;70162.91;5073194;28;20230;-76
2022/05/15 11:49:35;;;;;;;2.92;1.10;;;;;;;-145.69;36.45;70170.84;5075794;28;20230;-76
2022/05/15 11:52:33;;;;;;;0.93;0.82;;;;;;;-145.69;35.11;70152.97;5075959;28;20206;-76